sensor_id;sensor_type;location;lat;lon;timestamp;P1;durP1;ratioP1;P2;durP2;ratioP2
19113;SDS011;9689;51.052;13.772;2024-02-21T00:00:56;16.25;;;3.10;;
19113;SDS011;9689;51.052;13.772;2024-02-21T00:05:58;13.32;;;2.95;;
19113;SDS011;9689;51.052;13.772;2024-02-21T00:10:59;14.60;;;3.33;;
19113;SDS011;9689;51.052;13.772;2024-02-21T00:16:00;17.52;;;2.90;;
19113;SDS011;9689;51.052;13.772;2024-02-21T00:21:03;23.50;;;4.15;;
19113;SDS011;9689;51.052;13.772;2024-02-21T00:26:04;19.17;;;4.00;;
19113;SDS011;9689;51.052;13.772;2024-02-21T00:31:05;23.67;;;3.40;;
19113;SDS011;9689;51.052;13.772;2024-02-21T00:36:07;15.05;;;3.22;;
19113;SDS011;9689;51.052;13.772;2024-02-21T00:41:08;14.35;;;2.97;;
19113;SDS011;9689;51.052;13.772;2024-02-21T00:46:09;18.85;;;3.50;;
19113;SDS011;9689;51.052;13.772;2024-02-21T00:51:11;16.50;;;3.40;;
19113;SDS011;9689;51.052;13.772;2024-02-21T00:56:11;14.95;;;3.75;;
19113;SDS011;9689;51.052;13.772;2024-02-21T01:01:12;18.17;;;3.28;;
19113;SDS011;9689;51.052;13.772;2024-02-21T01:06:14;17.67;;;3.13;;
19113;SDS011;9689;51.052;13.772;2024-02-21T01:11:15;15.43;;;3.33;;
19113;SDS011;9689;51.052;13.772;2024-02-21T01:16:16;18.10;;;3.33;;
19113;SDS011;9689;51.052;13.772;2024-02-21T01:21:18;10.63;;;3.00;;
19113;SDS011;9689;51.052;13.772;2024-02-21T01:26:19;14.68;;;2.67;;
19113;SDS011;9689;51.052;13.772;2024-02-21T01:31:20;21.98;;;3.13;;
19113;SDS011;9689;51.052;13.772;2024-02-21T01:36:22;14.20;;;3.17;;
19113;SDS011;9689;51.052;13.772;2024-02-21T01:41:23;16.17;;;3.28;;
19113;SDS011;9689;51.052;13.772;2024-02-21T01:46:23;15.30;;;3.00;;
19113;SDS011;9689;51.052;13.772;2024-02-21T01:51:28;12.05;;;2.60;;
19113;SDS011;9689;51.052;13.772;2024-02-21T01:56:29;14.48;;;3.03;;
19113;SDS011;9689;51.052;13.772;2024-02-21T02:01:30;9.13;;;3.13;;
19113;SDS011;9689;51.052;13.772;2024-02-21T02:06:32;19.40;;;3.60;;
19113;SDS011;9689;51.052;13.772;2024-02-21T02:11:33;15.05;;;4.13;;
19113;SDS011;9689;51.052;13.772;2024-02-21T02:16:34;15.48;;;2.85;;
19113;SDS011;9689;51.052;13.772;2024-02-21T02:21:38;13.32;;;3.30;;
19113;SDS011;9689;51.052;13.772;2024-02-21T02:26:44;16.35;;;3.03;;
19113;SDS011;9689;51.052;13.772;2024-02-21T02:31:44;15.43;;;2.90;;
19113;SDS011;9689;51.052;13.772;2024-02-21T02:36:45;15.30;;;3.33;;
19113;SDS011;9689;51.052;13.772;2024-02-21T02:41:49;21.30;;;3.15;;
19113;SDS011;9689;51.052;13.772;2024-02-21T02:46:50;13.25;;;3.22;;
19113;SDS011;9689;51.052;13.772;2024-02-21T02:51:51;11.27;;;2.83;;
19113;SDS011;9689;51.052;13.772;2024-02-21T02:56:52;19.92;;;3.80;;
19113;SDS011;9689;51.052;13.772;2024-02-21T03:01:53;17.75;;;3.30;;
19113;SDS011;9689;51.052;13.772;2024-02-21T03:06:54;13.95;;;3.25;;
19113;SDS011;9689;51.052;13.772;2024-02-21T03:11:56;15.35;;;3.28;;
19113;SDS011;9689;51.052;13.772;2024-02-21T03:17:02;16.95;;;3.50;;
19113;SDS011;9689;51.052;13.772;2024-02-21T03:22:04;13.23;;;3.00;;
19113;SDS011;9689;51.052;13.772;2024-02-21T03:27:06;13.23;;;4.10;;
19113;SDS011;9689;51.052;13.772;2024-02-21T03:32:07;19.60;;;3.60;;
19113;SDS011;9689;51.052;13.772;2024-02-21T03:37:08;12.20;;;3.15;;
19113;SDS011;9689;51.052;13.772;2024-02-21T03:42:11;15.95;;;3.67;;
19113;SDS011;9689;51.052;13.772;2024-02-21T03:47:11;17.77;;;3.50;;
19113;SDS011;9689;51.052;13.772;2024-02-21T03:52:12;19.70;;;4.30;;
19113;SDS011;9689;51.052;13.772;2024-02-21T03:57:14;11.38;;;2.80;;
19113;SDS011;9689;51.052;13.772;2024-02-21T04:02:16;9.85;;;2.60;;
19113;SDS011;9689;51.052;13.772;2024-02-21T04:07:17;17.17;;;3.75;;
19113;SDS011;9689;51.052;13.772;2024-02-21T04:12:29;21.77;;;3.00;;
19113;SDS011;9689;51.052;13.772;2024-02-21T04:17:29;12.00;;;2.80;;
19113;SDS011;9689;51.052;13.772;2024-02-21T04:22:30;11.65;;;3.22;;
19113;SDS011;9689;51.052;13.772;2024-02-21T04:27:34;13.43;;;2.92;;
19113;SDS011;9689;51.052;13.772;2024-02-21T04:32:34;19.08;;;3.80;;
19113;SDS011;9689;51.052;13.772;2024-02-21T04:37:35;14.20;;;3.75;;
19113;SDS011;9689;51.052;13.772;2024-02-21T04:42:37;15.60;;;3.30;;
19113;SDS011;9689;51.052;13.772;2024-02-21T04:47:38;12.65;;;4.25;;
19113;SDS011;9689;51.052;13.772;2024-02-21T04:52:39;22.98;;;4.00;;
19113;SDS011;9689;51.052;13.772;2024-02-21T04:57:41;14.75;;;3.40;;
19113;SDS011;9689;51.052;13.772;2024-02-21T05:02:41;11.25;;;2.95;;
19113;SDS011;9689;51.052;13.772;2024-02-21T05:07:42;14.40;;;3.42;;
19113;SDS011;9689;51.052;13.772;2024-02-21T05:12:44;16.40;;;3.05;;
19113;SDS011;9689;51.052;13.772;2024-02-21T05:17:45;11.73;;;3.03;;
19113;SDS011;9689;51.052;13.772;2024-02-21T05:22:46;23.60;;;3.80;;
19113;SDS011;9689;51.052;13.772;2024-02-21T05:27:48;14.45;;;3.28;;
19113;SDS011;9689;51.052;13.772;2024-02-21T05:32:52;11.50;;;3.03;;
19113;SDS011;9689;51.052;13.772;2024-02-21T05:37:53;20.67;;;4.95;;
19113;SDS011;9689;51.052;13.772;2024-02-21T05:42:55;14.52;;;3.80;;
19113;SDS011;9689;51.052;13.772;2024-02-21T05:47:57;13.13;;;3.20;;
19113;SDS011;9689;51.052;13.772;2024-02-21T05:52:57;9.00;;;3.63;;
19113;SDS011;9689;51.052;13.772;2024-02-21T05:58:00;13.15;;;3.67;;
19113;SDS011;9689;51.052;13.772;2024-02-21T06:03:01;17.45;;;3.88;;
19113;SDS011;9689;51.052;13.772;2024-02-21T06:08:02;18.70;;;3.85;;
19113;SDS011;9689;51.052;13.772;2024-02-21T06:13:05;17.35;;;3.72;;
19113;SDS011;9689;51.052;13.772;2024-02-21T06:18:05;10.63;;;3.22;;
19113;SDS011;9689;51.052;13.772;2024-02-21T06:23:06;16.25;;;3.17;;
19113;SDS011;9689;51.052;13.772;2024-02-21T06:28:09;19.20;;;3.78;;
19113;SDS011;9689;51.052;13.772;2024-02-21T06:33:09;11.30;;;3.45;;
19113;SDS011;9689;51.052;13.772;2024-02-21T06:38:10;14.15;;;3.50;;
19113;SDS011;9689;51.052;13.772;2024-02-21T06:43:13;9.88;;;2.90;;
19113;SDS011;9689;51.052;13.772;2024-02-21T06:48:13;12.68;;;3.85;;
19113;SDS011;9689;51.052;13.772;2024-02-21T06:53:14;13.77;;;3.25;;
19113;SDS011;9689;51.052;13.772;2024-02-21T06:58:16;17.13;;;3.20;;
19113;SDS011;9689;51.052;13.772;2024-02-21T07:03:17;15.57;;;3.67;;
19113;SDS011;9689;51.052;13.772;2024-02-21T07:08:19;14.18;;;2.85;;
19113;SDS011;9689;51.052;13.772;2024-02-21T07:13:22;12.57;;;3.92;;
19113;SDS011;9689;51.052;13.772;2024-02-21T07:18:23;18.20;;;3.92;;
19113;SDS011;9689;51.052;13.772;2024-02-21T07:23:24;10.50;;;3.10;;
19113;SDS011;9689;51.052;13.772;2024-02-21T07:28:26;13.98;;;3.30;;
19113;SDS011;9689;51.052;13.772;2024-02-21T07:33:27;8.55;;;3.63;;
19113;SDS011;9689;51.052;13.772;2024-02-21T07:38:30;16.83;;;4.50;;
19113;SDS011;9689;51.052;13.772;2024-02-21T07:43:32;20.75;;;4.57;;
19113;SDS011;9689;51.052;13.772;2024-02-21T07:48:33;8.65;;;2.78;;
19113;SDS011;9689;51.052;13.772;2024-02-21T07:53:34;17.17;;;3.70;;
19113;SDS011;9689;51.052;13.772;2024-02-21T07:58:36;16.48;;;3.83;;
19113;SDS011;9689;51.052;13.772;2024-02-21T08:03:37;15.23;;;3.67;;
19113;SDS011;9689;51.052;13.772;2024-02-21T08:08:37;18.13;;;3.42;;
19113;SDS011;9689;51.052;13.772;2024-02-21T08:13:40;14.80;;;3.45;;
19113;SDS011;9689;51.052;13.772;2024-02-21T08:18:40;13.57;;;3.17;;
19113;SDS011;9689;51.052;13.772;2024-02-21T08:23:43;18.77;;;4.18;;
19113;SDS011;9689;51.052;13.772;2024-02-21T08:28:45;11.52;;;3.30;;
19113;SDS011;9689;51.052;13.772;2024-02-21T08:33:46;10.52;;;3.25;;
19113;SDS011;9689;51.052;13.772;2024-02-21T08:38:47;11.23;;;3.28;;
19113;SDS011;9689;51.052;13.772;2024-02-21T08:43:49;15.32;;;3.00;;
19113;SDS011;9689;51.052;13.772;2024-02-21T08:48:51;9.98;;;3.25;;
19113;SDS011;9689;51.052;13.772;2024-02-21T08:53:52;10.43;;;3.10;;
19113;SDS011;9689;51.052;13.772;2024-02-21T08:58:54;15.40;;;3.70;;
19113;SDS011;9689;51.052;13.772;2024-02-21T09:03:57;15.05;;;3.72;;
19113;SDS011;9689;51.052;13.772;2024-02-21T09:08:59;10.85;;;3.30;;
19113;SDS011;9689;51.052;13.772;2024-02-21T09:14:01;8.48;;;3.28;;
19113;SDS011;9689;51.052;13.772;2024-02-21T09:19:03;13.40;;;3.28;;
19113;SDS011;9689;51.052;13.772;2024-02-21T09:24:05;15.90;;;3.58;;
19113;SDS011;9689;51.052;13.772;2024-02-21T09:29:07;14.80;;;3.58;;
19113;SDS011;9689;51.052;13.772;2024-02-21T09:34:08;12.52;;;3.22;;
19113;SDS011;9689;51.052;13.772;2024-02-21T09:39:10;17.52;;;3.58;;
19113;SDS011;9689;51.052;13.772;2024-02-21T09:44:15;12.80;;;3.53;;
19113;SDS011;9689;51.052;13.772;2024-02-21T09:49:18;16.20;;;3.67;;
19113;SDS011;9689;51.052;13.772;2024-02-21T09:54:28;8.20;;;2.80;;
19113;SDS011;9689;51.052;13.772;2024-02-21T09:59:31;9.32;;;2.70;;
19113;SDS011;9689;51.052;13.772;2024-02-21T10:04:33;9.27;;;3.33;;
19113;SDS011;9689;51.052;13.772;2024-02-21T10:09:34;11.65;;;3.28;;
19113;SDS011;9689;51.052;13.772;2024-02-21T10:14:36;11.23;;;3.38;;
19113;SDS011;9689;51.052;13.772;2024-02-21T10:19:37;18.55;;;4.93;;
19113;SDS011;9689;51.052;13.772;2024-02-21T10:24:40;8.45;;;3.60;;
19113;SDS011;9689;51.052;13.772;2024-02-21T10:29:43;10.80;;;2.97;;
19113;SDS011;9689;51.052;13.772;2024-02-21T10:34:49;13.80;;;3.60;;
19113;SDS011;9689;51.052;13.772;2024-02-21T10:40:00;11.95;;;3.47;;
19113;SDS011;9689;51.052;13.772;2024-02-21T10:45:05;13.23;;;3.20;;
19113;SDS011;9689;51.052;13.772;2024-02-21T10:50:09;10.20;;;2.85;;
19113;SDS011;9689;51.052;13.772;2024-02-21T10:55:16;18.33;;;4.07;;
19113;SDS011;9689;51.052;13.772;2024-02-21T11:00:24;14.25;;;3.33;;
19113;SDS011;9689;51.052;13.772;2024-02-21T11:05:29;15.45;;;3.20;;
19113;SDS011;9689;51.052;13.772;2024-02-21T11:10:30;8.82;;;3.00;;
19113;SDS011;9689;51.052;13.772;2024-02-21T11:15:33;9.07;;;3.47;;
19113;SDS011;9689;51.052;13.772;2024-02-21T11:20:34;9.43;;;2.50;;
19113;SDS011;9689;51.052;13.772;2024-02-21T11:25:36;8.50;;;2.75;;
19113;SDS011;9689;51.052;13.772;2024-02-21T11:30:38;11.63;;;2.60;;
19113;SDS011;9689;51.052;13.772;2024-02-21T11:35:39;7.80;;;2.78;;
19113;SDS011;9689;51.052;13.772;2024-02-21T11:40:41;9.85;;;3.45;;
19113;SDS011;9689;51.052;13.772;2024-02-21T11:45:43;12.00;;;2.88;;
19113;SDS011;9689;51.052;13.772;2024-02-21T11:50:52;17.63;;;3.38;;
19113;SDS011;9689;51.052;13.772;2024-02-21T11:55:54;11.70;;;3.20;;
19113;SDS011;9689;51.052;13.772;2024-02-21T12:00:57;5.55;;;2.65;;
19113;SDS011;9689;51.052;13.772;2024-02-21T12:05:58;10.85;;;3.08;;
19113;SDS011;9689;51.052;13.772;2024-02-21T12:11:00;10.75;;;3.15;;
19113;SDS011;9689;51.052;13.772;2024-02-21T12:16:02;12.10;;;2.40;;
19113;SDS011;9689;51.052;13.772;2024-02-21T12:21:04;11.07;;;3.55;;
19113;SDS011;9689;51.052;13.772;2024-02-21T12:26:05;9.45;;;2.78;;
19113;SDS011;9689;51.052;13.772;2024-02-21T12:31:08;6.10;;;2.20;;
19113;SDS011;9689;51.052;13.772;2024-02-21T12:36:09;6.65;;;2.17;;
19113;SDS011;9689;51.052;13.772;2024-02-21T12:41:10;10.95;;;2.47;;
19113;SDS011;9689;51.052;13.772;2024-02-21T12:46:12;8.85;;;2.30;;
19113;SDS011;9689;51.052;13.772;2024-02-21T12:51:13;7.13;;;2.22;;
19113;SDS011;9689;51.052;13.772;2024-02-21T12:56:14;9.40;;;3.08;;
19113;SDS011;9689;51.052;13.772;2024-02-21T13:01:17;8.25;;;2.33;;
19113;SDS011;9689;51.052;13.772;2024-02-21T13:06:18;9.35;;;2.38;;
19113;SDS011;9689;51.052;13.772;2024-02-21T13:11:18;7.15;;;2.45;;
19113;SDS011;9689;51.052;13.772;2024-02-21T13:16:21;8.35;;;2.53;;
19113;SDS011;9689;51.052;13.772;2024-02-21T13:21:22;11.55;;;2.55;;
19113;SDS011;9689;51.052;13.772;2024-02-21T13:26:23;7.60;;;2.55;;
19113;SDS011;9689;51.052;13.772;2024-02-21T13:31:25;6.28;;;2.13;;
19113;SDS011;9689;51.052;13.772;2024-02-21T13:36:26;7.72;;;2.38;;
19113;SDS011;9689;51.052;13.772;2024-02-21T13:41:27;7.03;;;2.20;;
19113;SDS011;9689;51.052;13.772;2024-02-21T13:46:30;6.53;;;2.72;;
19113;SDS011;9689;51.052;13.772;2024-02-21T13:51:31;4.30;;;2.00;;
19113;SDS011;9689;51.052;13.772;2024-02-21T13:56:32;6.63;;;2.47;;
19113;SDS011;9689;51.052;13.772;2024-02-21T14:01:35;10.50;;;2.45;;
19113;SDS011;9689;51.052;13.772;2024-02-21T14:06:36;8.70;;;2.20;;
19113;SDS011;9689;51.052;13.772;2024-02-21T14:11:42;9.00;;;2.55;;
19113;SDS011;9689;51.052;13.772;2024-02-21T14:16:46;9.23;;;2.40;;
19113;SDS011;9689;51.052;13.772;2024-02-21T14:21:47;6.40;;;2.22;;
19113;SDS011;9689;51.052;13.772;2024-02-21T14:26:48;3.75;;;2.05;;
19113;SDS011;9689;51.052;13.772;2024-02-21T14:31:50;8.00;;;2.90;;
19113;SDS011;9689;51.052;13.772;2024-02-21T14:36:51;9.05;;;2.08;;
19113;SDS011;9689;51.052;13.772;2024-02-21T14:41:53;8.00;;;2.08;;
19113;SDS011;9689;51.052;13.772;2024-02-21T14:46:55;6.65;;;2.58;;
19113;SDS011;9689;51.052;13.772;2024-02-21T14:51:56;6.38;;;2.35;;
19113;SDS011;9689;51.052;13.772;2024-02-21T14:56:57;7.25;;;2.10;;
19113;SDS011;9689;51.052;13.772;2024-02-21T15:01:59;7.18;;;2.13;;
19113;SDS011;9689;51.052;13.772;2024-02-21T15:07:00;8.73;;;2.03;;
19113;SDS011;9689;51.052;13.772;2024-02-21T15:12:01;9.30;;;2.70;;
19113;SDS011;9689;51.052;13.772;2024-02-21T15:17:03;7.00;;;2.95;;
19113;SDS011;9689;51.052;13.772;2024-02-21T15:22:05;8.55;;;2.88;;
19113;SDS011;9689;51.052;13.772;2024-02-21T15:27:06;10.30;;;2.78;;
19113;SDS011;9689;51.052;13.772;2024-02-21T15:32:09;7.57;;;3.17;;
19113;SDS011;9689;51.052;13.772;2024-02-21T15:37:10;8.75;;;3.00;;
19113;SDS011;9689;51.052;13.772;2024-02-21T15:42:11;8.57;;;2.92;;
19113;SDS011;9689;51.052;13.772;2024-02-21T15:47:13;10.38;;;3.00;;
19113;SDS011;9689;51.052;13.772;2024-02-21T15:52:14;14.80;;;2.90;;
19113;SDS011;9689;51.052;13.772;2024-02-21T15:57:15;11.13;;;2.97;;
19113;SDS011;9689;51.052;13.772;2024-02-21T16:02:17;11.77;;;3.50;;
19113;SDS011;9689;51.052;13.772;2024-02-21T16:07:18;10.00;;;3.63;;
19113;SDS011;9689;51.052;13.772;2024-02-21T16:12:19;11.85;;;3.67;;
19113;SDS011;9689;51.052;13.772;2024-02-21T16:17:24;7.32;;;3.30;;
19113;SDS011;9689;51.052;13.772;2024-02-21T16:22:25;12.55;;;4.20;;
19113;SDS011;9689;51.052;13.772;2024-02-21T16:27:25;23.25;;;5.90;;
19113;SDS011;9689;51.052;13.772;2024-02-21T16:32:28;14.80;;;4.53;;
19113;SDS011;9689;51.052;13.772;2024-02-21T16:37:29;11.55;;;4.20;;
19113;SDS011;9689;51.052;13.772;2024-02-21T16:42:30;15.98;;;4.03;;
19113;SDS011;9689;51.052;13.772;2024-02-21T16:47:33;15.23;;;4.47;;
19113;SDS011;9689;51.052;13.772;2024-02-21T16:52:34;14.30;;;4.80;;
19113;SDS011;9689;51.052;13.772;2024-02-21T16:57:35;16.50;;;7.65;;
19113;SDS011;9689;51.052;13.772;2024-02-21T17:02:39;27.83;;;10.60;;
19113;SDS011;9689;51.052;13.772;2024-02-21T17:07:53;33.65;;;14.10;;
19113;SDS011;9689;51.052;13.772;2024-02-21T17:12:54;29.85;;;13.20;;
19113;SDS011;9689;51.052;13.772;2024-02-21T17:17:57;21.27;;;8.57;;
19113;SDS011;9689;51.052;13.772;2024-02-21T17:22:58;28.67;;;12.23;;
19113;SDS011;9689;51.052;13.772;2024-02-21T17:27:59;30.00;;;9.93;;
19113;SDS011;9689;51.052;13.772;2024-02-21T17:33:01;15.75;;;7.13;;
19113;SDS011;9689;51.052;13.772;2024-02-21T17:38:02;14.07;;;5.95;;
19113;SDS011;9689;51.052;13.772;2024-02-21T17:43:05;18.13;;;5.57;;
19113;SDS011;9689;51.052;13.772;2024-02-21T17:48:08;15.13;;;5.47;;
19113;SDS011;9689;51.052;13.772;2024-02-21T17:53:09;13.23;;;5.22;;
19113;SDS011;9689;51.052;13.772;2024-02-21T17:58:11;16.40;;;6.78;;
19113;SDS011;9689;51.052;13.772;2024-02-21T18:03:13;14.98;;;6.70;;
19113;SDS011;9689;51.052;13.772;2024-02-21T18:08:14;20.83;;;6.82;;
19113;SDS011;9689;51.052;13.772;2024-02-21T18:13:15;19.60;;;6.45;;
19113;SDS011;9689;51.052;13.772;2024-02-21T18:18:17;21.55;;;7.85;;
19113;SDS011;9689;51.052;13.772;2024-02-21T18:23:18;26.88;;;7.35;;
19113;SDS011;9689;51.052;13.772;2024-02-21T18:28:19;26.42;;;8.20;;
19113;SDS011;9689;51.052;13.772;2024-02-21T18:33:26;21.60;;;8.82;;
19113;SDS011;9689;51.052;13.772;2024-02-21T18:38:29;23.98;;;9.07;;
19113;SDS011;9689;51.052;13.772;2024-02-21T18:43:30;25.00;;;8.38;;
19113;SDS011;9689;51.052;13.772;2024-02-21T18:48:32;21.73;;;8.43;;
19113;SDS011;9689;51.052;13.772;2024-02-21T18:53:33;19.08;;;8.23;;
19113;SDS011;9689;51.052;13.772;2024-02-21T18:58:34;28.83;;;8.43;;
19113;SDS011;9689;51.052;13.772;2024-02-21T19:03:36;22.15;;;8.23;;
19113;SDS011;9689;51.052;13.772;2024-02-21T19:08:37;23.65;;;8.52;;
19113;SDS011;9689;51.052;13.772;2024-02-21T19:13:38;17.00;;;7.25;;
19113;SDS011;9689;51.052;13.772;2024-02-21T19:18:40;22.70;;;8.52;;
19113;SDS011;9689;51.052;13.772;2024-02-21T19:23:42;15.80;;;7.32;;
19113;SDS011;9689;51.052;13.772;2024-02-21T19:28:43;15.10;;;7.45;;
19113;SDS011;9689;51.052;13.772;2024-02-21T19:33:46;19.20;;;6.40;;
19113;SDS011;9689;51.052;13.772;2024-02-21T19:38:46;14.95;;;7.18;;
19113;SDS011;9689;51.052;13.772;2024-02-21T19:43:47;13.18;;;6.53;;
19113;SDS011;9689;51.052;13.772;2024-02-21T19:48:50;19.50;;;7.10;;
19113;SDS011;9689;51.052;13.772;2024-02-21T19:53:51;15.95;;;6.95;;
19113;SDS011;9689;51.052;13.772;2024-02-21T19:59:12;12.73;;;5.95;;
19113;SDS011;9689;51.052;13.772;2024-02-21T20:04:14;11.02;;;5.55;;
19113;SDS011;9689;51.052;13.772;2024-02-21T20:09:16;10.82;;;5.25;;
19113;SDS011;9689;51.052;13.772;2024-02-21T20:14:17;15.57;;;5.47;;
19113;SDS011;9689;51.052;13.772;2024-02-21T20:19:23;18.60;;;6.40;;
19113;SDS011;9689;51.052;13.772;2024-02-21T20:24:24;13.35;;;5.60;;
19113;SDS011;9689;51.052;13.772;2024-02-21T20:29:38;12.63;;;5.53;;
19113;SDS011;9689;51.052;13.772;2024-02-21T20:34:40;13.18;;;4.15;;
19113;SDS011;9689;51.052;13.772;2024-02-21T20:39:42;8.80;;;3.63;;
19113;SDS011;9689;51.052;13.772;2024-02-21T20:44:43;13.60;;;4.35;;
19113;SDS011;9689;51.052;13.772;2024-02-21T20:49:46;16.23;;;5.20;;
19113;SDS011;9689;51.052;13.772;2024-02-21T20:54:48;10.52;;;4.80;;
19113;SDS011;9689;51.052;13.772;2024-02-21T20:59:49;9.68;;;4.20;;
19113;SDS011;9689;51.052;13.772;2024-02-21T21:04:52;8.85;;;4.65;;
19113;SDS011;9689;51.052;13.772;2024-02-21T21:09:53;13.27;;;4.30;;
19113;SDS011;9689;51.052;13.772;2024-02-21T21:14:54;12.43;;;4.50;;
19113;SDS011;9689;51.052;13.772;2024-02-21T21:19:56;13.10;;;4.82;;
19113;SDS011;9689;51.052;13.772;2024-02-21T21:24:57;14.00;;;5.10;;
19113;SDS011;9689;51.052;13.772;2024-02-21T21:29:59;13.75;;;6.57;;
19113;SDS011;9689;51.052;13.772;2024-02-21T21:35:03;11.32;;;5.07;;
19113;SDS011;9689;51.052;13.772;2024-02-21T21:40:04;9.45;;;3.42;;
19113;SDS011;9689;51.052;13.772;2024-02-21T21:45:08;8.02;;;3.33;;
19113;SDS011;9689;51.052;13.772;2024-02-21T21:50:11;8.73;;;4.00;;
19113;SDS011;9689;51.052;13.772;2024-02-21T21:55:12;10.95;;;2.78;;
19113;SDS011;9689;51.052;13.772;2024-02-21T22:00:13;8.38;;;2.92;;
19113;SDS011;9689;51.052;13.772;2024-02-21T22:05:17;10.10;;;3.60;;
19113;SDS011;9689;51.052;13.772;2024-02-21T22:10:18;8.05;;;3.30;;
19113;SDS011;9689;51.052;13.772;2024-02-21T22:15:19;9.98;;;3.40;;
19113;SDS011;9689;51.052;13.772;2024-02-21T22:20:21;9.70;;;2.67;;
19113;SDS011;9689;51.052;13.772;2024-02-21T22:25:24;6.88;;;2.60;;
19113;SDS011;9689;51.052;13.772;2024-02-21T22:30:25;12.18;;;2.83;;
19113;SDS011;9689;51.052;13.772;2024-02-21T22:35:27;9.27;;;3.10;;
19113;SDS011;9689;51.052;13.772;2024-02-21T22:40:28;12.60;;;2.53;;
19113;SDS011;9689;51.052;13.772;2024-02-21T22:45:29;8.85;;;2.38;;
19113;SDS011;9689;51.052;13.772;2024-02-21T22:50:33;9.63;;;2.60;;
19113;SDS011;9689;51.052;13.772;2024-02-21T22:55:34;8.63;;;3.03;;
19113;SDS011;9689;51.052;13.772;2024-02-21T23:00:35;8.02;;;2.55;;
19113;SDS011;9689;51.052;13.772;2024-02-21T23:05:37;11.82;;;2.90;;
19113;SDS011;9689;51.052;13.772;2024-02-21T23:10:38;8.55;;;2.83;;
19113;SDS011;9689;51.052;13.772;2024-02-21T23:15:39;4.75;;;2.08;;
19113;SDS011;9689;51.052;13.772;2024-02-21T23:20:41;5.75;;;2.45;;
19113;SDS011;9689;51.052;13.772;2024-02-21T23:25:43;8.50;;;2.20;;
19113;SDS011;9689;51.052;13.772;2024-02-21T23:30:44;9.63;;;2.15;;
19113;SDS011;9689;51.052;13.772;2024-02-21T23:35:46;5.50;;;1.95;;
19113;SDS011;9689;51.052;13.772;2024-02-21T23:40:46;5.90;;;1.65;;
19113;SDS011;9689;51.052;13.772;2024-02-21T23:45:47;6.90;;;2.20;;
19113;SDS011;9689;51.052;13.772;2024-02-21T23:50:49;2.75;;;1.42;;
19113;SDS011;9689;51.052;13.772;2024-02-21T23:55:50;3.15;;;1.33;;
